sensor_id;sensor_type;location;lat;lon;timestamp;pressure;altitude;pressure_sealevel;temperature;humidity
38466;BME280;24244;51.950;5.902;2023-07-08T00:00:40;101657.91;;;21.92;53.76
38466;BME280;24244;51.950;5.902;2023-07-08T00:03:08;101660.00;;;21.90;53.90
38466;BME280;24244;51.950;5.902;2023-07-08T00:05:36;101654.03;;;21.88;53.89
38466;BME280;24244;51.950;5.902;2023-07-08T00:08:03;101651.56;;;21.86;53.79
38466;BME280;24244;51.950;5.902;2023-07-08T00:10:30;101660.16;;;21.83;53.96
38466;BME280;24244;51.950;5.902;2023-07-08T00:12:58;101649.00;;;21.80;54.10
38466;BME280;24244;51.950;5.902;2023-07-08T00:15:26;101644.63;;;21.79;53.88
38466;BME280;24244;51.950;5.902;2023-07-08T00:17:54;101645.94;;;21.76;53.98
38466;BME280;24244;51.950;5.902;2023-07-08T00:20:28;101640.75;;;21.75;53.91
38466;BME280;24244;51.950;5.902;2023-07-08T00:22:58;101636.41;;;21.74;54.20
38466;BME280;24244;51.950;5.902;2023-07-08T00:25:27;101637.72;;;21.71;54.11
38466;BME280;24244;51.950;5.902;2023-07-08T00:27:54;101630.06;;;21.68;54.24
38466;BME280;24244;51.950;5.902;2023-07-08T00:30:24;101626.78;;;21.66;54.07
38466;BME280;24244;51.950;5.902;2023-07-08T00:32:52;101629.72;;;21.65;54.10
38466;BME280;24244;51.950;5.902;2023-07-08T00:35:29;101625.00;;;21.60;54.45
38466;BME280;24244;51.950;5.902;2023-07-08T00:37:57;101626.31;;;21.58;54.52
38466;BME280;24244;51.950;5.902;2023-07-08T00:40:29;101619.72;;;21.54;54.35
38466;BME280;24244;51.950;5.902;2023-07-08T00:42:58;101621.88;;;21.52;54.46
38466;BME280;24244;51.950;5.902;2023-07-08T00:45:39;101617.75;;;21.49;54.50
38466;BME280;24244;51.950;5.902;2023-07-08T00:48:30;101609.03;;;21.47;54.61
38466;BME280;24244;51.950;5.902;2023-07-08T00:51:00;101610.34;;;21.44;54.68
38466;BME280;24244;51.950;5.902;2023-07-08T00:53:31;101599.75;;;21.43;54.80
38466;BME280;24244;51.950;5.902;2023-07-08T00:56:02;101614.81;;;21.39;54.76
38466;BME280;24244;51.950;5.902;2023-07-08T00:58:34;101612.34;;;21.37;54.63
38466;BME280;24244;51.950;5.902;2023-07-08T01:01:04;101617.19;;;21.35;54.68
38466;BME280;24244;51.950;5.902;2023-07-08T01:03:34;101614.94;;;21.32;54.84
38466;BME280;24244;51.950;5.902;2023-07-08T01:06:05;101614.38;;;21.30;55.01
38466;BME280;24244;51.950;5.902;2023-07-08T01:08:33;101605.66;;;21.28;54.94
38466;BME280;24244;51.950;5.902;2023-07-08T01:11:01;101606.72;;;21.27;54.97
38466;BME280;24244;51.950;5.902;2023-07-08T01:13:35;101609.91;;;21.24;54.88
38466;BME280;24244;51.950;5.902;2023-07-08T01:16:04;101605.78;;;21.22;54.97
38466;BME280;24244;51.950;5.902;2023-07-08T01:18:33;101606.25;;;21.19;55.03
38466;BME280;24244;51.950;5.902;2023-07-08T01:21:02;101610.00;;;21.18;55.04
38466;BME280;24244;51.950;5.902;2023-07-08T01:23:35;101606.09;;;21.14;55.12
38466;BME280;24244;51.950;5.902;2023-07-08T01:26:03;101603.06;;;21.10;55.19
38466;BME280;24244;51.950;5.902;2023-07-08T01:28:30;101599.53;;;21.09;55.36
38466;BME280;24244;51.950;5.902;2023-07-08T01:30:57;101592.69;;;21.07;55.29
38466;BME280;24244;51.950;5.902;2023-07-08T01:33:25;101585.66;;;21.06;55.50
38466;BME280;24244;51.950;5.902;2023-07-08T01:35:52;101589.63;;;21.03;55.44
38466;BME280;24244;51.950;5.902;2023-07-08T01:38:25;101592.81;;;21.00;55.62
38466;BME280;24244;51.950;5.902;2023-07-08T01:40:55;101597.84;;;20.97;55.52
38466;BME280;24244;51.950;5.902;2023-07-08T01:43:23;101587.53;;;20.94;55.70
38466;BME280;24244;51.950;5.902;2023-07-08T01:45:51;101586.94;;;20.92;55.53
38466;BME280;24244;51.950;5.902;2023-07-08T01:48:22;101591.75;;;20.90;55.57
38466;BME280;24244;51.950;5.902;2023-07-08T01:50:53;101586.81;;;20.87;55.66
38466;BME280;24244;51.950;5.902;2023-07-08T01:53:29;101589.97;;;20.84;55.82
38466;BME280;24244;51.950;5.902;2023-07-08T01:55:57;101586.13;;;20.80;55.85
38466;BME280;24244;51.950;5.902;2023-07-08T01:58:24;101582.00;;;20.77;56.11
38466;BME280;24244;51.950;5.902;2023-07-08T02:00:51;101581.66;;;20.74;56.03
38466;BME280;24244;51.950;5.902;2023-07-08T02:03:18;101576.47;;;20.72;56.08
38466;BME280;24244;51.950;5.902;2023-07-08T02:05:44;101571.50;;;20.69;56.20
38466;BME280;24244;51.950;5.902;2023-07-08T02:08:12;101573.88;;;20.65;56.19
38466;BME280;24244;51.950;5.902;2023-07-08T02:10:40;101566.59;;;20.66;56.36
38466;BME280;24244;51.950;5.902;2023-07-08T02:13:09;101554.38;;;20.63;56.18
38466;BME280;24244;51.950;5.902;2023-07-08T02:15:35;101557.53;;;20.60;56.16
38466;BME280;24244;51.950;5.902;2023-07-08T02:18:02;101555.31;;;20.57;56.52
38466;BME280;24244;51.950;5.902;2023-07-08T02:20:29;101558.22;;;20.56;56.43
38466;BME280;24244;51.950;5.902;2023-07-08T02:22:56;101553.06;;;20.54;56.51
38466;BME280;24244;51.950;5.902;2023-07-08T02:25:22;101556.25;;;20.51;56.58
38466;BME280;24244;51.950;5.902;2023-07-08T02:27:49;101552.94;;;20.49;56.61
38466;BME280;24244;51.950;5.902;2023-07-08T02:30:18;101556.09;;;20.46;56.84
38466;BME280;24244;51.950;5.902;2023-07-08T02:32:44;101554.47;;;20.45;56.84
38466;BME280;24244;51.950;5.902;2023-07-08T02:35:15;101557.63;;;20.42;57.09
38466;BME280;24244;51.950;5.902;2023-07-08T02:37:42;101547.28;;;20.39;57.05
38466;BME280;24244;51.950;5.902;2023-07-08T02:40:10;101555.63;;;20.38;57.18
38466;BME280;24244;51.950;5.902;2023-07-08T02:42:36;101551.50;;;20.35;57.26
38466;BME280;24244;51.950;5.902;2023-07-08T02:45:04;101548.19;;;20.33;57.28
38466;BME280;24244;51.950;5.902;2023-07-08T02:47:33;101552.19;;;20.30;57.26
38466;BME280;24244;51.950;5.902;2023-07-08T02:49:59;101544.06;;;20.30;57.44
38466;BME280;24244;51.950;5.902;2023-07-08T02:52:26;101548.03;;;20.28;57.45
38466;BME280;24244;51.950;5.902;2023-07-08T02:54:53;101552.84;;;20.26;57.50
38466;BME280;24244;51.950;5.902;2023-07-08T02:57:19;101544.41;;;20.22;57.62
38466;BME280;24244;51.950;5.902;2023-07-08T02:59:46;101546.72;;;20.19;57.77
38466;BME280;24244;51.950;5.902;2023-07-08T03:02:13;101545.06;;;20.18;58.06
38466;BME280;24244;51.950;5.902;2023-07-08T03:04:41;101543.44;;;20.17;57.99
38466;BME280;24244;51.950;5.902;2023-07-08T03:07:08;101545.31;;;20.16;58.01
38466;BME280;24244;51.950;5.902;2023-07-08T03:09:40;101544.72;;;20.14;58.00
38466;BME280;24244;51.950;5.902;2023-07-08T03:12:09;101533.31;;;20.12;58.13
38466;BME280;24244;51.950;5.902;2023-07-08T03:14:37;101539.19;;;20.09;58.22
38466;BME280;24244;51.950;5.902;2023-07-08T03:17:05;101537.56;;;20.08;58.16
38466;BME280;24244;51.950;5.902;2023-07-08T03:19:32;101542.34;;;20.06;58.32
38466;BME280;24244;51.950;5.902;2023-07-08T03:22:00;101539.03;;;20.04;58.37
38466;BME280;24244;51.950;5.902;2023-07-08T03:24:31;101540.13;;;20.03;58.51
38466;BME280;24244;51.950;5.902;2023-07-08T03:26:58;101530.59;;;20.01;58.70
38466;BME280;24244;51.950;5.902;2023-07-08T03:29:26;101540.78;;;19.99;58.52
38466;BME280;24244;51.950;5.902;2023-07-08T03:31:53;101544.53;;;19.98;58.56
38466;BME280;24244;51.950;5.902;2023-07-08T03:34:21;101549.38;;;19.96;58.74
38466;BME280;24244;51.950;5.902;2023-07-08T03:36:49;101550.41;;;19.94;58.82
38466;BME280;24244;51.950;5.902;2023-07-08T03:39:18;101547.09;;;19.92;59.01
38466;BME280;24244;51.950;5.902;2023-07-08T03:41:47;101552.94;;;19.89;58.66
38466;BME280;24244;51.950;5.902;2023-07-08T03:44:15;101553.44;;;19.86;59.00
38466;BME280;24244;51.950;5.902;2023-07-08T03:46:42;101558.00;;;19.86;59.06
38466;BME280;24244;51.950;5.902;2023-07-08T03:49:09;101551.16;;;19.83;59.07
38466;BME280;24244;51.950;5.902;2023-07-08T03:51:38;101547.91;;;19.81;59.11
38466;BME280;24244;51.950;5.902;2023-07-08T03:54:07;101548.94;;;19.80;59.06
38466;BME280;24244;51.950;5.902;2023-07-08T03:56:37;101557.03;;;19.80;59.03
38466;BME280;24244;51.950;5.902;2023-07-08T03:59:04;101548.34;;;19.78;59.07
38466;BME280;24244;51.950;5.902;2023-07-08T04:01:31;101539.63;;;19.76;59.21
38466;BME280;24244;51.950;5.902;2023-07-08T04:03:58;101544.22;;;19.76;59.28
38466;BME280;24244;51.950;5.902;2023-07-08T04:06:26;101549.38;;;19.77;59.24
38466;BME280;24244;51.950;5.902;2023-07-08T04:08:53;101552.31;;;19.76;59.45
38466;BME280;24244;51.950;5.902;2023-07-08T04:11:22;101549.59;;;19.76;59.48
38466;BME280;24244;51.950;5.902;2023-07-08T04:13:50;101551.47;;;19.75;59.43
38466;BME280;24244;51.950;5.902;2023-07-08T04:16:19;101559.34;;;19.77;59.56
38466;BME280;24244;51.950;5.902;2023-07-08T04:18:47;101558.53;;;19.76;59.50
38466;BME280;24244;51.950;5.902;2023-07-08T04:21:14;101556.88;;;19.75;59.72
38466;BME280;24244;51.950;5.902;2023-07-08T04:23:44;101554.16;;;19.75;59.83
38466;BME280;24244;51.950;5.902;2023-07-08T04:26:11;101561.69;;;19.73;59.79
38466;BME280;24244;51.950;5.902;2023-07-08T04:28:37;101559.22;;;19.72;59.89
38466;BME280;24244;51.950;5.902;2023-07-08T04:31:05;101557.56;;;19.71;59.99
38466;BME280;24244;51.950;5.902;2023-07-08T04:33:32;101562.13;;;19.70;60.03
38466;BME280;24244;51.950;5.902;2023-07-08T04:35:59;101574.78;;;19.70;60.07
38466;BME280;24244;51.950;5.902;2023-07-08T04:38:26;101564.00;;;19.70;60.11
38466;BME280;24244;51.950;5.902;2023-07-08T04:40:53;101565.06;;;19.69;60.10
38466;BME280;24244;51.950;5.902;2023-07-08T04:43:21;101564.22;;;19.68;60.27
38466;BME280;24244;51.950;5.902;2023-07-08T04:45:50;101551.56;;;19.69;60.03
38466;BME280;24244;51.950;5.902;2023-07-08T04:48:21;101558.84;;;19.68;60.15
38466;BME280;24244;51.950;5.902;2023-07-08T04:50:49;101550.75;;;19.68;60.17
38466;BME280;24244;51.950;5.902;2023-07-08T04:53:17;101559.91;;;19.67;60.21
38466;BME280;24244;51.950;5.902;2023-07-08T04:55:46;101555.34;;;19.68;60.27
38466;BME280;24244;51.950;5.902;2023-07-08T04:58:15;101555.56;;;19.66;60.32
38466;BME280;24244;51.950;5.902;2023-07-08T05:00:42;101557.22;;;19.67;60.41
38466;BME280;24244;51.950;5.902;2023-07-08T05:03:09;101547.25;;;19.68;60.35
38466;BME280;24244;51.950;5.902;2023-07-08T05:05:37;101558.03;;;19.68;60.42
38466;BME280;24244;51.950;5.902;2023-07-08T05:08:05;101551.56;;;19.69;60.50
38466;BME280;24244;51.950;5.902;2023-07-08T05:10:34;101551.81;;;19.67;60.58
38466;BME280;24244;51.950;5.902;2023-07-08T05:13:00;101555.34;;;19.68;60.80
38466;BME280;24244;51.950;5.902;2023-07-08T05:15:27;101557.44;;;19.66;60.79
38466;BME280;24244;51.950;5.902;2023-07-08T05:17:54;101556.00;;;19.63;60.92
38466;BME280;24244;51.950;5.902;2023-07-08T05:20:21;101554.34;;;19.62;61.08
38466;BME280;24244;51.950;5.902;2023-07-08T05:22:50;101553.53;;;19.62;61.15
38466;BME280;24244;51.950;5.902;2023-07-08T05:25:18;101550.59;;;19.63;60.85
38466;BME280;24244;51.950;5.902;2023-07-08T05:27:47;101553.31;;;19.63;61.02
38466;BME280;24244;51.950;5.902;2023-07-08T05:30:16;101544.16;;;19.64;60.73
38466;BME280;24244;51.950;5.902;2023-07-08T05:32:43;101550.59;;;19.63;61.00
38466;BME280;24244;51.950;5.902;2023-07-08T05:35:10;101542.28;;;19.65;61.03
38466;BME280;24244;51.950;5.902;2023-07-08T05:37:37;101538.53;;;19.66;61.23
38466;BME280;24244;51.950;5.902;2023-07-08T05:40:08;101536.06;;;19.64;61.21
38466;BME280;24244;51.950;5.902;2023-07-08T05:42:35;101536.69;;;19.66;61.20
38466;BME280;24244;51.950;5.902;2023-07-08T05:45:03;101540.78;;;19.69;61.13
38466;BME280;24244;51.950;5.902;2023-07-08T05:47:29;101538.91;;;19.69;61.15
38466;BME280;24244;51.950;5.902;2023-07-08T05:49:56;101541.38;;;19.71;61.35
38466;BME280;24244;51.950;5.902;2023-07-08T05:52:24;101536.81;;;19.71;61.30
38466;BME280;24244;51.950;5.902;2023-07-08T05:54:51;101538.25;;;19.74;61.24
38466;BME280;24244;51.950;5.902;2023-07-08T05:57:19;101540.69;;;19.75;61.21
38466;BME280;24244;51.950;5.902;2023-07-08T05:59:46;101537.75;;;19.77;61.28
38466;BME280;24244;51.950;5.902;2023-07-08T06:02:13;101545.63;;;19.78;61.22
38466;BME280;24244;51.950;5.902;2023-07-08T06:04:40;101556.22;;;19.80;61.38
38466;BME280;24244;51.950;5.902;2023-07-08T06:07:07;101559.25;;;19.83;61.21
38466;BME280;24244;51.950;5.902;2023-07-08T06:09:34;101567.97;;;19.85;61.41
38466;BME280;24244;51.950;5.902;2023-07-08T06:12:01;101570.22;;;19.88;61.53
38466;BME280;24244;51.950;5.902;2023-07-08T06:14:29;101570.78;;;19.90;61.49
38466;BME280;24244;51.950;5.902;2023-07-08T06:16:57;101566.00;;;19.92;61.51
38466;BME280;24244;51.950;5.902;2023-07-08T06:19:24;101558.28;;;19.96;61.41
38466;BME280;24244;51.950;5.902;2023-07-08T06:21:51;101563.22;;;19.99;61.43
38466;BME280;24244;51.950;5.902;2023-07-08T06:24:18;101555.94;;;20.00;61.37
38466;BME280;24244;51.950;5.902;2023-07-08T06:26:44;101561.94;;;20.02;61.38
38466;BME280;24244;51.950;5.902;2023-07-08T06:29:25;101562.75;;;20.02;61.40
38466;BME280;24244;51.950;5.902;2023-07-08T06:31:53;101561.47;;;20.05;61.54
38466;BME280;24244;51.950;5.902;2023-07-08T06:34:20;101560.41;;;20.06;61.37
38466;BME280;24244;51.950;5.902;2023-07-08T06:36:52;101556.44;;;20.08;61.50
38466;BME280;24244;51.950;5.902;2023-07-08T06:39:19;101553.53;;;20.10;61.63
38466;BME280;24244;51.950;5.902;2023-07-08T06:41:45;101563.03;;;20.12;61.61
38466;BME280;24244;51.950;5.902;2023-07-08T06:44:12;101560.91;;;20.14;61.68
38466;BME280;24244;51.950;5.902;2023-07-08T06:46:40;101562.34;;;20.17;61.69
38466;BME280;24244;51.950;5.902;2023-07-08T06:49:08;101552.13;;;20.19;61.92
38466;BME280;24244;51.950;5.902;2023-07-08T06:51:36;101550.84;;;20.21;61.89
38466;BME280;24244;51.950;5.902;2023-07-08T06:54:03;101546.88;;;20.24;61.99
38466;BME280;24244;51.950;5.902;2023-07-08T06:56:37;101544.53;;;20.27;62.26
38466;BME280;24244;51.950;5.902;2023-07-08T06:59:05;101552.75;;;20.32;61.93
38466;BME280;24244;51.950;5.902;2023-07-08T07:01:32;101543.41;;;20.35;62.24
38466;BME280;24244;51.950;5.902;2023-07-08T07:04:00;101540.25;;;20.38;62.04
38466;BME280;24244;51.950;5.902;2023-07-08T07:06:30;101545.78;;;20.43;62.13
38466;BME280;24244;51.950;5.902;2023-07-08T07:08:56;101544.22;;;20.47;62.10
38466;BME280;24244;51.950;5.902;2023-07-08T07:11:23;101551.66;;;20.52;62.03
38466;BME280;24244;51.950;5.902;2023-07-08T07:13:51;101556.13;;;20.58;62.16
38466;BME280;24244;51.950;5.902;2023-07-08T07:16:18;101560.81;;;20.62;62.02
38466;BME280;24244;51.950;5.902;2023-07-08T07:18:45;101555.78;;;20.66;62.16
38466;BME280;24244;51.950;5.902;2023-07-08T07:21:11;101556.72;;;20.71;62.08
38466;BME280;24244;51.950;5.902;2023-07-08T07:23:39;101558.72;;;20.76;61.77
38466;BME280;24244;51.950;5.902;2023-07-08T07:26:06;101555.56;;;20.79;61.90
38466;BME280;24244;51.950;5.902;2023-07-08T07:28:34;101550.25;;;20.84;61.90
38466;BME280;24244;51.950;5.902;2023-07-08T07:31:01;101560.13;;;20.90;62.01
38466;BME280;24244;51.950;5.902;2023-07-08T07:33:30;101551.56;;;20.93;61.99
38466;BME280;24244;51.950;5.902;2023-07-08T07:35:58;101552.50;;;20.99;61.95
38466;BME280;24244;51.950;5.902;2023-07-08T07:38:25;101547.19;;;21.04;61.71
38466;BME280;24244;51.950;5.902;2023-07-08T07:40:56;101551.91;;;21.08;61.85
38466;BME280;24244;51.950;5.902;2023-07-08T07:43:26;101542.84;;;21.15;61.84
38466;BME280;24244;51.950;5.902;2023-07-08T07:45:53;101549.22;;;21.20;61.79
38466;BME280;24244;51.950;5.902;2023-07-08T07:48:20;101543.91;;;21.25;62.02
38466;BME280;24244;51.950;5.902;2023-07-08T07:50:48;101529.47;;;21.31;61.77
38466;BME280;24244;51.950;5.902;2023-07-08T07:53:16;101531.78;;;21.39;61.92
38466;BME280;24244;51.950;5.902;2023-07-08T07:55:43;101539.19;;;21.44;61.72
38466;BME280;24244;51.950;5.902;2023-07-08T07:58:11;101542.00;;;21.49;61.93
38466;BME280;24244;51.950;5.902;2023-07-08T08:00:38;101537.50;;;21.55;62.01
38466;BME280;24244;51.950;5.902;2023-07-08T08:03:05;101537.38;;;21.61;61.78
38466;BME280;24244;51.950;5.902;2023-07-08T08:05:32;101536.16;;;21.69;61.63
38466;BME280;24244;51.950;5.902;2023-07-08T08:07:59;101528.97;;;21.74;61.65
38466;BME280;24244;51.950;5.902;2023-07-08T08:10:26;101527.75;;;21.82;61.62
38466;BME280;24244;51.950;5.902;2023-07-08T08:12:52;101529.53;;;21.88;61.33
38466;BME280;24244;51.950;5.902;2023-07-08T08:15:22;101526.91;;;21.93;61.39
38466;BME280;24244;51.950;5.902;2023-07-08T08:17:49;101527.59;;;22.00;61.25
38466;BME280;24244;51.950;5.902;2023-07-08T08:20:20;101527.44;;;22.07;61.27
38466;BME280;24244;51.950;5.902;2023-07-08T08:22:47;101534.59;;;22.13;61.16
38466;BME280;24244;51.950;5.902;2023-07-08T08:25:14;101530.09;;;22.18;61.40
38466;BME280;24244;51.950;5.902;2023-07-08T08:27:41;101531.25;;;22.22;61.13
38466;BME280;24244;51.950;5.902;2023-07-08T08:30:09;101540.28;;;22.28;61.23
38466;BME280;24244;51.950;5.902;2023-07-08T08:32:37;101540.13;;;22.35;61.06
38466;BME280;24244;51.950;5.902;2023-07-08T08:35:05;101535.59;;;22.40;60.96
38466;BME280;24244;51.950;5.902;2023-07-08T08:37:32;101548.16;;;22.46;60.92
38466;BME280;24244;51.950;5.902;2023-07-08T08:39:59;101548.81;;;22.53;60.57
38466;BME280;24244;51.950;5.902;2023-07-08T08:42:28;101552.19;;;22.60;60.82
38466;BME280;24244;51.950;5.902;2023-07-08T08:44:57;101556.06;;;22.64;60.70
38466;BME280;24244;51.950;5.902;2023-07-08T08:47:33;101558.38;;;22.73;60.83
38466;BME280;24244;51.950;5.902;2023-07-08T08:50:24;101564.78;;;22.83;60.46
38466;BME280;24244;51.950;5.902;2023-07-08T08:52:53;101556.81;;;22.93;60.13
38466;BME280;24244;51.950;5.902;2023-07-08T08:55:23;101558.34;;;23.06;59.53
38466;BME280;24244;51.950;5.902;2023-07-08T08:57:59;101558.47;;;23.16;59.18
38466;BME280;24244;51.950;5.902;2023-07-08T09:00:37;101561.03;;;23.23;58.91
38466;BME280;24244;51.950;5.902;2023-07-08T09:03:11;101546.13;;;23.25;59.27
38466;BME280;24244;51.950;5.902;2023-07-08T09:05:42;101553.00;;;23.33;59.20
38466;BME280;24244;51.950;5.902;2023-07-08T09:08:13;101552.59;;;23.41;59.30
38466;BME280;24244;51.950;5.902;2023-07-08T09:10:45;101550.75;;;23.47;59.22
38466;BME280;24244;51.950;5.902;2023-07-08T09:13:18;101552.47;;;23.53;59.15
38466;BME280;24244;51.950;5.902;2023-07-08T09:15:57;101555.28;;;23.58;59.33
38466;BME280;24244;51.950;5.902;2023-07-08T09:18:30;101553.44;;;23.63;59.40
38466;BME280;24244;51.950;5.902;2023-07-08T09:21:05;101546.69;;;23.66;59.68
38466;BME280;24244;51.950;5.902;2023-07-08T09:23:39;101558.09;;;23.68;59.79
38466;BME280;24244;51.950;5.902;2023-07-08T09:26:14;101550.28;;;23.71;59.90
38466;BME280;24244;51.950;5.902;2023-07-08T09:28:44;101549.25;;;23.77;59.85
38466;BME280;24244;51.950;5.902;2023-07-08T09:31:22;101546.00;;;23.80;59.89
38466;BME280;24244;51.950;5.902;2023-07-08T09:33:50;101538.78;;;23.86;59.66
38466;BME280;24244;51.950;5.902;2023-07-08T09:36:23;101546.19;;;23.96;59.54
38466;BME280;24244;51.950;5.902;2023-07-08T09:38:51;101541.38;;;24.03;59.10
38466;BME280;24244;51.950;5.902;2023-07-08T09:41:33;101542.31;;;24.13;59.08
38466;BME280;24244;51.950;5.902;2023-07-08T09:44:15;101543.41;;;24.17;58.83
38466;BME280;24244;51.950;5.902;2023-07-08T09:46:42;101536.16;;;24.23;58.69
38466;BME280;24244;51.950;5.902;2023-07-08T09:49:17;101538.94;;;24.28;58.60
38466;BME280;24244;51.950;5.902;2023-07-08T09:51:46;101538.72;;;24.35;58.88
38466;BME280;24244;51.950;5.902;2023-07-08T09:54:12;101529.03;;;24.44;58.79
38466;BME280;24244;51.950;5.902;2023-07-08T09:56:43;101535.06;;;24.51;58.66
38466;BME280;24244;51.950;5.902;2023-07-08T09:59:12;101537.56;;;24.57;58.38
38466;BME280;24244;51.950;5.902;2023-07-08T10:01:41;101533.78;;;24.64;58.15
38466;BME280;24244;51.950;5.902;2023-07-08T10:04:09;101530.03;;;24.70;58.04
38466;BME280;24244;51.950;5.902;2023-07-08T10:06:35;101533.09;;;24.78;57.98
38466;BME280;24244;51.950;5.902;2023-07-08T10:09:09;101537.22;;;24.86;57.92
38466;BME280;24244;51.950;5.902;2023-07-08T10:11:43;101543.00;;;24.94;57.53
38466;BME280;24244;51.950;5.902;2023-07-08T10:14:22;101534.06;;;25.04;57.35
38466;BME280;24244;51.950;5.902;2023-07-08T10:16:52;101547.19;;;25.12;56.93
38466;BME280;24244;51.950;5.902;2023-07-08T10:19:20;101556.50;;;25.21;56.85
38466;BME280;24244;51.950;5.902;2023-07-08T10:21:51;101551.09;;;25.31;56.56
38466;BME280;24244;51.950;5.902;2023-07-08T10:24:36;101547.88;;;25.45;56.05
38466;BME280;24244;51.950;5.902;2023-07-08T10:27:11;101541.09;;;25.52;55.92
38466;BME280;24244;51.950;5.902;2023-07-08T10:29:46;101540.06;;;25.58;55.78
38466;BME280;24244;51.950;5.902;2023-07-08T10:32:25;101537.09;;;25.65;56.11
38466;BME280;24244;51.950;5.902;2023-07-08T10:34:59;101542.00;;;25.73;55.80
38466;BME280;24244;51.950;5.902;2023-07-08T10:37:36;101545.31;;;25.80;55.64
38466;BME280;24244;51.950;5.902;2023-07-08T10:40:19;101546.97;;;25.91;55.61
38466;BME280;24244;51.950;5.902;2023-07-08T10:42:57;101542.38;;;26.07;55.27
38466;BME280;24244;51.950;5.902;2023-07-08T10:45:33;101547.81;;;26.22;54.82
38466;BME280;24244;51.950;5.902;2023-07-08T10:48:17;101547.34;;;26.35;54.52
38466;BME280;24244;51.950;5.902;2023-07-08T10:51:01;101540.53;;;26.43;54.42
38466;BME280;24244;51.950;5.902;2023-07-08T10:53:35;101535.09;;;26.43;54.72
38466;BME280;24244;51.950;5.902;2023-07-08T10:56:09;101529.34;;;26.49;54.52
38466;BME280;24244;51.950;5.902;2023-07-08T10:58:52;101525.25;;;26.57;54.42
38466;BME280;24244;51.950;5.902;2023-07-08T11:01:32;101522.53;;;26.62;54.55
38466;BME280;24244;51.950;5.902;2023-07-08T11:04:23;101519.75;;;26.72;53.98
38466;BME280;24244;51.950;5.902;2023-07-08T11:06:57;101526.03;;;26.83;53.54
38466;BME280;24244;51.950;5.902;2023-07-08T11:09:29;101514.31;;;26.93;53.10
38466;BME280;24244;51.950;5.902;2023-07-08T11:12:02;101524.38;;;27.02;52.70
38466;BME280;24244;51.950;5.902;2023-07-08T11:14:41;101520.81;;;27.07;53.05
38466;BME280;24244;51.950;5.902;2023-07-08T11:17:13;101510.69;;;27.12;52.84
38466;BME280;24244;51.950;5.902;2023-07-08T11:19:50;101503.56;;;27.21;52.93
38466;BME280;24244;51.950;5.902;2023-07-08T11:22:21;101501.06;;;27.30;52.87
38466;BME280;24244;51.950;5.902;2023-07-08T11:24:49;101502.66;;;27.36;52.74
38466;BME280;24244;51.950;5.902;2023-07-08T11:27:22;101507.81;;;27.43;52.65
38466;BME280;24244;51.950;5.902;2023-07-08T11:29:55;101509.72;;;27.47;52.86
38466;BME280;24244;51.950;5.902;2023-07-08T11:32:26;101508.38;;;27.55;52.84
38466;BME280;24244;51.950;5.902;2023-07-08T11:34:55;101510.19;;;27.64;52.79
38466;BME280;24244;51.950;5.902;2023-07-08T11:37:23;101508.28;;;27.70;52.52
38466;BME280;24244;51.950;5.902;2023-07-08T11:39:54;101504.69;;;27.75;52.60
38466;BME280;24244;51.950;5.902;2023-07-08T11:42:29;101511.75;;;27.81;52.46
38466;BME280;24244;51.950;5.902;2023-07-08T11:45:00;101508.97;;;27.86;52.45
38466;BME280;24244;51.950;5.902;2023-07-08T11:47:33;101511.38;;;27.92;52.29
38466;BME280;24244;51.950;5.902;2023-07-08T11:50:02;101509.47;;;27.98;52.34
38466;BME280;24244;51.950;5.902;2023-07-08T11:52:29;101508.56;;;28.08;52.56
38466;BME280;24244;51.950;5.902;2023-07-08T11:54:59;101510.97;;;28.19;52.02
38466;BME280;24244;51.950;5.902;2023-07-08T11:57:36;101509.78;;;28.30;51.54
38466;BME280;24244;51.950;5.902;2023-07-08T12:00:15;101516.81;;;28.41;51.48
38466;BME280;24244;51.950;5.902;2023-07-08T12:02:55;101512.31;;;28.51;51.11
38466;BME280;24244;51.950;5.902;2023-07-08T12:05:33;101510.59;;;28.60;50.55
38466;BME280;24244;51.950;5.902;2023-07-08T12:08:02;101504.56;;;28.63;50.84
38466;BME280;24244;51.950;5.902;2023-07-08T12:10:34;101508.81;;;28.74;50.11
38466;BME280;24244;51.950;5.902;2023-07-08T12:13:09;101502.75;;;28.82;49.28
38466;BME280;24244;51.950;5.902;2023-07-08T12:15:38;101501.88;;;28.87;49.43
38466;BME280;24244;51.950;5.902;2023-07-08T12:18:11;101493.91;;;28.90;49.44
38466;BME280;24244;51.950;5.902;2023-07-08T12:20:40;101495.75;;;28.95;49.03
38466;BME280;24244;51.950;5.902;2023-07-08T12:23:11;101491.56;;;29.02;48.66
38466;BME280;24244;51.950;5.902;2023-07-08T12:25:38;101489.28;;;29.09;48.65
38466;BME280;24244;51.950;5.902;2023-07-08T12:28:06;101477.78;;;29.12;48.81
38466;BME280;24244;51.950;5.902;2023-07-08T12:30:33;101480.50;;;29.12;48.92
38466;BME280;24244;51.950;5.902;2023-07-08T12:33:00;101481.25;;;29.18;48.56
38466;BME280;24244;51.950;5.902;2023-07-08T12:35:29;101482.28;;;29.22;48.31
38466;BME280;24244;51.950;5.902;2023-07-08T12:37:59;101472.06;;;29.28;48.22
38466;BME280;24244;51.950;5.902;2023-07-08T12:40:29;101481.88;;;29.34;47.83
38466;BME280;24244;51.950;5.902;2023-07-08T12:42:56;101475.28;;;29.35;48.27
38466;BME280;24244;51.950;5.902;2023-07-08T12:45:30;101473.91;;;29.37;48.05
38466;BME280;24244;51.950;5.902;2023-07-08T12:47:57;101482.03;;;29.42;47.62
38466;BME280;24244;51.950;5.902;2023-07-08T12:50:24;101482.00;;;29.47;47.66
38466;BME280;24244;51.950;5.902;2023-07-08T12:52:51;101477.53;;;29.51;47.65
38466;BME280;24244;51.950;5.902;2023-07-08T12:55:18;101476.97;;;29.54;47.47
38466;BME280;24244;51.950;5.902;2023-07-08T12:57:49;101479.38;;;29.56;47.69
38466;BME280;24244;51.950;5.902;2023-07-08T13:00:24;101474.13;;;29.59;47.75
38466;BME280;24244;51.950;5.902;2023-07-08T13:02:56;101482.28;;;29.65;47.49